Time;durP1;ratioP1;P1;durP2;ratioP2;P2;SDS_P1;SDS_P2;PMS_P1;PMS_P2;Temp;Humidity;BMP_temperature;BMP_pressure;BME280_temperature;BME280_humidity;BME280_pressure;Samples;Min_cycle;Max_cycle;Signal;HPM_P1;HPM_P2
2022/02/19 00:00:53;;;;;;;9.45;1.88;;;6.30;74.80;;;;;;2075906;28;20031;-90
2022/02/19 00:01:54;;;;;;;8.75;1.60;;;6.30;74.70;;;;;;2088022;28;20045;-90
2022/02/19 00:02:54;;;;;;;7.07;1.58;;;6.30;74.80;;;;;;2088325;28;20047;-89
2022/02/19 00:03:56;;;;;;;9.93;2.10;;;6.30;74.80;;;;;;2083437;28;20039;-90
2022/02/19 00:04:57;;;;;;;7.53;1.60;;;6.30;74.80;;;;;;2069902;28;20042;-90
2022/02/19 00:05:58;;;;;;;6.80;1.27;;;6.30;74.80;;;;;;2084924;28;20146;-90
2022/02/19 00:06:58;;;;;;;10.05;1.80;;;6.30;74.80;;;;;;2077753;28;20504;-89
2022/02/19 00:08:01;;;;;;;6.75;1.27;;;6.30;74.70;;;;;;2053713;28;20047;-90
2022/02/19 00:09:01;;;;;;;9.68;2.08;;;6.30;74.80;;;;;;2076244;28;20495;-91
2022/02/19 00:10:03;;;;;;;7.75;1.58;;;6.30;74.80;;;;;;2087318;28;20078;-90
2022/02/19 00:11:04;;;;;;;8.82;1.77;;;6.30;74.80;;;;;;2061671;28;20130;-91
2022/02/19 00:12:05;;;;;;;8.48;2.00;;;6.30;74.80;;;;;;2058608;28;20046;-89
2022/02/19 00:13:06;;;;;;;7.40;1.50;;;6.30;74.70;;;;;;2055935;28;20046;-90
2022/02/19 00:14:07;;;;;;;8.35;1.63;;;6.30;74.90;;;;;;2097980;28;20434;-90
2022/02/19 00:15:08;;;;;;;10.05;1.55;;;6.30;74.80;;;;;;2093310;28;20040;-90
2022/02/19 00:16:09;;;;;;;7.30;1.52;;;6.30;74.90;;;;;;2072770;28;20049;-89
2022/02/19 00:17:09;;;;;;;6.90;1.42;;;6.30;74.90;;;;;;2067362;28;20508;-90
2022/02/19 00:18:11;;;;;;;7.57;1.58;;;6.30;74.90;;;;;;2104833;28;20044;-91
2022/02/19 00:19:11;;;;;;;6.38;1.60;;;6.30;75.50;;;;;;2097892;28;20124;-91
2022/02/19 00:20:13;;;;;;;9.40;1.50;;;6.30;74.90;;;;;;2052155;28;20041;-90
2022/02/19 00:21:14;;;;;;;5.50;1.38;;;6.30;75.10;;;;;;2071814;28;20085;-90
2022/02/19 00:22:15;;;;;;;7.60;1.48;;;6.30;75.10;;;;;;2088763;28;20134;-90
2022/02/19 00:23:15;;;;;;;6.35;1.55;;;6.30;75.20;;;;;;2084151;28;20495;-90
2022/02/19 00:24:16;;;;;;;9.10;1.52;;;6.30;75.80;;;;;;2062273;28;20054;-90
2022/02/19 00:25:19;;;;;;;7.63;1.35;;;6.20;75.20;;;;;;2070278;28;20035;-90
2022/02/19 00:26:19;;;;;;;8.00;1.90;;;6.30;75.30;;;;;;2065368;28;20074;-92
2022/02/19 00:27:20;;;;;;;7.93;1.38;;;6.30;75.30;;;;;;2065029;28;20043;-90
2022/02/19 00:28:20;;;;;;;7.07;1.60;;;6.20;75.30;;;;;;2054848;28;20078;-90
2022/02/19 00:29:21;;;;;;;7.93;1.45;;;6.20;75.30;;;;;;2054681;28;20036;-90
2022/02/19 00:30:22;;;;;;;5.50;1.20;;;6.20;75.40;;;;;;2062250;28;20039;-91
2022/02/19 00:31:22;;;;;;;7.80;1.67;;;6.20;75.30;;;;;;2065042;28;20095;-90
2022/02/19 00:32:23;;;;;;;6.78;1.45;;;6.20;75.20;;;;;;2060577;28;20142;-89
2022/02/19 00:33:25;;;;;;;9.18;1.83;;;6.20;76.00;;;;;;2062323;28;20111;-90
2022/02/19 00:34:25;;;;;;;8.65;1.55;;;6.20;75.40;;;;;;2061881;28;20467;-91
2022/02/19 00:35:26;;;;;;;6.18;1.30;;;6.20;75.40;;;;;;2065376;28;20042;-89
2022/02/19 00:36:27;;;;;;;13.60;2.35;;;6.20;75.50;;;;;;2075421;28;20041;-90
2022/02/19 00:37:27;;;;;;;6.28;1.58;;;6.20;75.50;;;;;;2089898;28;20060;-90
2022/02/19 00:38:28;;;;;;;6.68;1.48;;;6.20;75.50;;;;;;2103970;28;20063;-90
2022/02/19 00:39:29;;;;;;;10.63;1.42;;;6.20;75.70;;;;;;2063833;28;20033;-90
2022/02/19 00:40:30;;;;;;;8.98;1.60;;;6.10;75.80;;;;;;2052725;28;20062;-90
2022/02/19 00:41:30;;;;;;;6.68;1.45;;;6.10;76.40;;;;;;2061970;28;20035;-89
2022/02/19 00:42:31;;;;;;;7.25;1.63;;;6.10;75.80;;;;;;2045171;28;20082;-89
2022/02/19 00:43:32;;;;;;;11.45;2.00;;;6.10;75.90;;;;;;2059351;28;20039;-90
2022/02/19 00:44:33;;;;;;;6.53;1.52;;;6.10;75.90;;;;;;2072164;28;20399;-89
2022/02/19 00:45:34;;;;;;;10.10;1.83;;;6.10;75.90;;;;;;2097438;28;20395;-90
2022/02/19 00:46:35;;;;;;;6.10;1.35;;;6.10;76.00;;;;;;2071047;28;20119;-91
2022/02/19 00:47:35;;;;;;;7.35;1.50;;;6.10;76.10;;;;;;2092980;28;20146;-90
2022/02/19 00:48:36;;;;;;;8.95;1.70;;;6.10;76.20;;;;;;2082483;28;20129;-89
2022/02/19 00:49:37;;;;;;;6.20;1.50;;;6.10;76.20;;;;;;2078414;28;20453;-90
2022/02/19 00:50:37;;;;;;;7.97;1.30;;;6.10;76.30;;;;;;2060843;28;20449;-90
2022/02/19 00:51:38;;;;;;;8.27;2.00;;;6.10;76.30;;;;;;2068106;28;20043;-90
2022/02/19 00:52:39;;;;;;;10.25;1.40;;;6.10;76.40;;;;;;2077563;28;20025;-90
2022/02/19 00:53:40;;;;;;;9.20;1.70;;;6.10;76.40;;;;;;2066459;28;20031;-90
2022/02/19 00:54:41;;;;;;;6.35;1.30;;;6.10;76.40;;;;;;2069259;28;20234;-90
2022/02/19 00:55:42;;;;;;;7.38;1.50;;;6.10;76.50;;;;;;2060187;28;20106;-90
2022/02/19 00:56:42;;;;;;;7.80;1.50;;;6.00;76.60;;;;;;2068494;28;20034;-90
2022/02/19 00:57:43;;;;;;;11.07;1.85;;;6.00;76.60;;;;;;2068351;28;20145;-90
2022/02/19 00:58:44;;;;;;;7.78;1.40;;;6.00;76.70;;;;;;2069511;28;20306;-90
2022/02/19 00:59:44;;;;;;;9.02;1.80;;;6.00;76.70;;;;;;2067859;28;20069;-90
2022/02/19 01:00:45;;;;;;;7.95;1.40;;;6.00;76.80;;;;;;2070358;28;20049;-89
2022/02/19 01:01:45;;;;;;;8.35;1.30;;;6.00;76.90;;;;;;2066885;28;20130;-89
2022/02/19 01:02:46;;;;;;;11.40;2.05;;;6.00;76.90;;;;;;2072628;28;20082;-90
2022/02/19 01:03:47;;;;;;;9.88;1.63;;;6.00;76.90;;;;;;2062725;28;20066;-90
2022/02/19 01:04:48;;;;;;;6.55;1.70;;;6.00;77.00;;;;;;2067450;28;20034;-91
2022/02/19 01:05:48;;;;;;;8.43;1.77;;;6.00;77.00;;;;;;2064595;28;20046;-90
2022/02/19 01:06:49;;;;;;;7.53;1.75;;;6.00;77.10;;;;;;2065660;28;20131;-89
2022/02/19 01:07:50;;;;;;;6.47;1.60;;;6.10;77.20;;;;;;2092716;28;20078;-90
2022/02/19 01:08:50;;;;;;;7.70;2.17;;;6.10;77.20;;;;;;2105263;28;20113;-91
2022/02/19 01:09:51;;;;;;;12.20;1.92;;;6.10;77.40;;;;;;2097676;28;20426;-90
2022/02/19 01:10:52;;;;;;;9.23;1.40;;;6.10;77.40;;;;;;2097665;28;20530;-89
2022/02/19 01:11:54;;;;;;;6.13;1.17;;;6.10;77.40;;;;;;2082204;28;20037;-90
2022/02/19 01:12:54;;;;;;;5.85;1.45;;;6.10;77.40;;;;;;2089504;28;20488;-90
2022/02/19 01:13:55;;;;;;;8.25;1.30;;;6.10;77.40;;;;;;2066351;28;20038;-90
2022/02/19 01:14:56;;;;;;;8.93;1.40;;;6.10;77.40;;;;;;2080242;28;20076;-90
2022/02/19 01:15:58;;;;;;;7.75;1.40;;;6.10;77.50;;;;;;2085731;28;20065;-89
2022/02/19 01:16:59;;;;;;;8.60;1.27;;;6.10;77.50;;;;;;2066986;28;20049;-90
2022/02/19 01:17:59;;;;;;;6.45;1.25;;;6.10;77.50;;;;;;2089188;28;20039;-90
2022/02/19 01:19:00;;;;;;;7.18;1.42;;;6.10;77.40;;;;;;2099066;28;20086;-90
2022/02/19 01:20:01;;;;;;;8.27;1.60;;;6.10;77.40;;;;;;2099213;28;20036;-90
2022/02/19 01:21:01;;;;;;;5.82;1.30;;;6.10;77.30;;;;;;2098428;28;20033;-89
2022/02/19 01:22:05;;;;;;;8.55;1.88;;;6.10;77.30;;;;;;2096506;28;20064;-89
2022/02/19 01:23:06;;;;;;;6.82;1.30;;;6.10;77.40;;;;;;2091364;28;20037;-89
2022/02/19 01:24:06;;;;;;;9.32;1.60;;;6.10;77.30;;;;;;2081276;28;20029;-90
2022/02/19 01:25:10;;;;;;;7.35;1.30;;;6.10;77.30;;;;;;2078810;28;20037;-90
2022/02/19 01:26:11;;;;;;;6.82;1.63;;;6.10;77.30;;;;;;2090322;28;20080;-90
2022/02/19 01:27:11;;;;;;;8.05;1.52;;;6.10;77.40;;;;;;2104973;28;20032;-90
2022/02/19 01:28:12;;;;;;;9.07;1.90;;;6.10;77.30;;;;;;2105937;28;20036;-90
2022/02/19 01:29:13;;;;;;;8.23;1.83;;;6.10;77.20;;;;;;2100021;28;20056;-89
2022/02/19 01:30:13;;;;;;;6.13;1.42;;;6.10;77.30;;;;;;2101617;28;20056;-90
2022/02/19 01:31:14;;;;;;;11.43;1.50;;;6.10;77.20;;;;;;2102055;28;20121;-90
2022/02/19 01:32:15;;;;;;;7.47;1.58;;;6.10;77.20;;;;;;2098548;28;20045;-90
2022/02/19 01:33:15;;;;;;;6.13;1.10;;;6.10;77.10;;;;;;2100887;28;20051;-90
2022/02/19 01:34:16;;;;;;;6.53;1.30;;;6.10;77.10;;;;;;2088539;28;20049;-90
2022/02/19 01:35:17;;;;;;;6.13;1.55;;;6.10;77.00;;;;;;2087153;28;20116;-90
2022/02/19 01:36:18;;;;;;;8.90;1.38;;;6.10;77.10;;;;;;2093910;28;20103;-90
2022/02/19 01:37:18;;;;;;;5.80;1.40;;;6.10;77.00;;;;;;2093704;28;20515;-90
2022/02/19 01:38:19;;;;;;;6.78;1.38;;;6.10;77.70;;;;;;2102360;28;20150;-91
2022/02/19 01:39:20;;;;;;;9.18;1.70;;;6.20;77.20;;;;;;2097302;28;20041;-91
2022/02/19 01:40:21;;;;;;;8.43;1.52;;;6.10;77.00;;;;;;2088899;28;20106;-90
2022/02/19 01:41:21;;;;;;;6.60;1.50;;;6.10;77.00;;;;;;2084579;28;20037;-89
2022/02/19 01:42:22;;;;;;;5.65;1.27;;;6.10;77.00;;;;;;2093665;28;20041;-90
2022/02/19 01:43:23;;;;;;;6.30;1.30;;;6.10;77.10;;;;;;2097499;28;20581;-90
2022/02/19 01:44:36;;;;;;;4.93;1.25;;;6.10;77.00;;;;;;2093155;28;20067;-90
2022/02/19 01:45:38;;;;;;;6.55;1.45;;;6.10;77.00;;;;;;2102372;28;20044;-90
2022/02/19 01:46:38;;;;;;;5.82;1.20;;;6.10;77.00;;;;;;2096501;28;20040;-90
2022/02/19 01:47:40;;;;;;;9.07;1.20;;;6.10;76.90;;;;;;2083211;28;20041;-89
2022/02/19 01:48:40;;;;;;;8.57;1.45;;;6.10;76.90;;;;;;2097026;28;20036;-91
2022/02/19 01:49:42;;;;;;;6.95;1.20;;;6.10;76.50;;;;;;2095661;28;20123;-90
2022/02/19 01:50:43;;;;;;;8.43;1.30;;;6.10;76.50;;;;;;2091179;28;20025;-90
2022/02/19 01:51:44;;;;;;;5.85;1.40;;;6.10;76.40;;;;;;2088692;28;20045;-90
2022/02/19 01:52:47;;;;;;;7.80;1.40;;;6.10;76.50;;;;;;2075684;28;20146;-89
2022/02/19 01:53:48;;;;;;;6.25;1.15;;;6.10;76.50;;;;;;2063640;28;20047;-90
2022/02/19 01:54:49;;;;;;;5.63;1.23;;;6.10;76.50;;;;;;2075291;28;20038;-91
2022/02/19 01:55:50;;;;;;;7.90;1.38;;;6.10;76.60;;;;;;2097559;28;20044;-91
2022/02/19 01:56:51;;;;;;;4.20;0.90;;;6.10;76.40;;;;;;2092176;28;20601;-89
2022/02/19 01:57:52;;;;;;;6.93;1.25;;;6.10;76.30;;;;;;2102109;28;20050;-90
2022/02/19 01:58:52;;;;;;;6.68;1.30;;;6.10;76.20;;;;;;2098001;28;20127;-90
2022/02/19 01:59:53;;;;;;;5.68;1.10;;;6.10;76.40;;;;;;2096440;28;20479;-89
2022/02/19 02:00:54;;;;;;;5.78;1.02;;;6.10;76.20;;;;;;2081804;28;20313;-91
2022/02/19 02:01:55;;;;;;;4.60;0.93;;;6.10;76.20;;;;;;2089279;28;20033;-91
2022/02/19 02:03:00;;;;;;;4.68;1.05;;;6.10;75.90;;;;;;2097349;28;20039;-90
2022/02/19 02:04:01;;;;;;;4.82;1.00;;;6.10;76.10;;;;;;2096847;28;20567;-90
2022/02/19 02:05:02;;;;;;;7.78;1.30;;;6.10;75.60;;;;;;2087144;28;20045;-89
2022/02/19 02:06:02;;;;;;;5.07;1.38;;;6.10;75.50;;;;;;2083507;28;20115;-90
2022/02/19 02:07:04;;;;;;;6.15;0.90;;;6.10;75.60;;;;;;2092360;28;20067;-91
2022/02/19 02:08:07;;;;;;;5.55;1.20;;;6.10;75.30;;;;;;2061168;28;20097;-90
2022/02/19 02:09:07;;;;;;;4.53;0.88;;;6.10;75.40;;;;;;2052111;28;20133;-90
2022/02/19 02:10:08;;;;;;;5.57;1.10;;;6.10;75.40;;;;;;2089960;28;20077;-89
2022/02/19 02:11:09;;;;;;;4.43;0.90;;;6.10;75.40;;;;;;2062229;28;20096;-90
2022/02/19 02:12:10;;;;;;;5.72;0.80;;;6.10;75.40;;;;;;2047841;28;20043;-90
2022/02/19 02:13:10;;;;;;;5.88;1.05;;;6.10;75.50;;;;;;2058277;28;20501;-90
2022/02/19 02:14:13;;;;;;;6.85;1.20;;;6.10;75.40;;;;;;2046721;28;20032;-91
2022/02/19 02:15:28;;;;;;;7.72;1.15;;;6.10;75.40;;;;;;2051395;28;20043;-90
2022/02/19 02:16:37;;;;;;;6.20;1.00;;;6.10;75.30;;;;;;2063203;28;20130;-89
2022/02/19 02:17:39;;;;;;;8.10;1.45;;;6.10;75.20;;;;;;2072038;28;20480;-89
2022/02/19 02:18:45;;;;;;;7.03;1.17;;;6.10;75.00;;;;;;2067354;28;20030;-89
2022/02/19 02:19:46;;;;;;;5.03;1.10;;;6.10;75.10;;;;;;2068929;28;20576;-90
2022/02/19 02:20:47;;;;;;;7.47;1.27;;;6.10;75.10;;;;;;2059002;28;20039;-90
2022/02/19 02:21:47;;;;;;;7.85;1.23;;;6.10;74.70;;;;;;2040812;28;20038;-90
2022/02/19 02:22:48;;;;;;;6.47;1.20;;;6.10;74.80;;;;;;2050260;28;20050;-89
2022/02/19 02:23:49;;;;;;;5.30;1.20;;;6.10;75.00;;;;;;2059542;28;20125;-90
2022/02/19 02:24:50;;;;;;;5.78;1.08;;;6.00;75.00;;;;;;2065315;28;20038;-90
2022/02/19 02:25:53;;;;;;;4.82;0.98;;;6.10;75.00;;;;;;2063173;28;20070;-90
2022/02/19 02:26:55;;;;;;;6.00;0.95;;;6.10;75.80;;;;;;2048867;28;20059;-90
2022/02/19 02:27:56;;;;;;;4.75;1.05;;;6.00;75.00;;;;;;2068794;28;20044;-90
2022/02/19 02:28:57;;;;;;;4.85;0.82;;;6.00;75.00;;;;;;2057623;28;20439;-90
2022/02/19 02:29:58;;;;;;;5.68;1.30;;;6.10;75.10;;;;;;2068669;28;20083;-90
2022/02/19 02:30:59;;;;;;;5.80;1.20;;;6.00;75.00;;;;;;2070616;28;20084;-90
2022/02/19 02:31:59;;;;;;;4.85;0.98;;;6.10;75.00;;;;;;2074510;28;20088;-90
2022/02/19 02:33:07;;;;;;;3.78;0.80;;;6.00;74.90;;;;;;2086097;28;20044;-90
2022/02/19 02:34:08;;;;;;;8.57;1.17;;;6.00;75.00;;;;;;2065874;28;20110;-89
2022/02/19 02:35:08;;;;;;;5.15;1.00;;;6.00;75.00;;;;;;2064995;28;20084;-91
2022/02/19 02:36:09;;;;;;;5.47;1.10;;;6.00;75.00;;;;;;2075424;28;20198;-90
2022/02/19 02:37:10;;;;;;;5.50;1.05;;;6.00;75.00;;;;;;2069152;28;20090;-91
2022/02/19 02:38:10;;;;;;;4.60;1.05;;;6.00;75.10;;;;;;2064404;28;20038;-90
2022/02/19 02:39:11;;;;;;;4.38;1.15;;;6.10;75.10;;;;;;2066306;28;20039;-91
2022/02/19 02:40:12;;;;;;;5.68;0.90;;;6.10;74.70;;;;;;2083385;28;20044;-91
2022/02/19 02:41:14;;;;;;;6.47;1.25;;;6.00;74.70;;;;;;2076543;28;20037;-89
2022/02/19 02:42:16;;;;;;;7.82;1.23;;;6.10;74.80;;;;;;2058578;28;20070;-90
2022/02/19 02:43:16;;;;;;;3.85;1.00;;;6.10;74.50;;;;;;2066437;28;20039;-90
2022/02/19 02:44:17;;;;;;;7.05;0.90;;;6.10;74.70;;;;;;2056565;28;20038;-90
2022/02/19 02:45:18;;;;;;;3.67;1.00;;;6.10;75.40;;;;;;2085123;28;20068;-90
2022/02/19 02:46:19;;;;;;;4.55;1.00;;;6.10;74.70;;;;;;2095619;28;20169;-90
2022/02/19 02:47:19;;;;;;;4.30;0.80;;;6.10;74.60;;;;;;2098757;28;20407;-89
2022/02/19 02:48:20;;;;;;;5.90;1.30;;;6.10;74.70;;;;;;2049723;28;20086;-90
2022/02/19 02:49:21;;;;;;;5.60;0.95;;;6.10;74.70;;;;;;2091791;28;20519;-89
2022/02/19 02:50:22;;;;;;;5.45;1.05;;;6.10;74.70;;;;;;2090223;28;20041;-90
2022/02/19 02:51:22;;;;;;;4.72;1.00;;;6.10;74.70;;;;;;2062629;28;20057;-90
2022/02/19 02:52:23;;;;;;;7.57;1.42;;;6.10;74.70;;;;;;2041051;28;20112;-90
2022/02/19 02:53:26;;;;;;;5.55;1.20;;;6.10;74.80;;;;;;2063301;28;20050;-89
2022/02/19 02:54:26;;;;;;;6.93;1.05;;;6.10;74.70;;;;;;2064094;28;20488;-89
2022/02/19 02:55:27;;;;;;;5.43;1.30;;;6.10;74.60;;;;;;2098234;28;20038;-90
2022/02/19 02:56:28;;;;;;;4.70;1.10;;;6.10;74.60;;;;;;2083147;28;20066;-90
2022/02/19 02:57:28;;;;;;;5.57;0.98;;;6.10;74.70;;;;;;2089596;28;20049;-90
2022/02/19 02:58:29;;;;;;;3.78;0.90;;;6.10;74.70;;;;;;2097594;28;20427;-90
2022/02/19 02:59:29;;;;;;;6.32;0.90;;;6.10;74.80;;;;;;2098806;28;20513;-90
2022/02/19 03:00:30;;;;;;;4.60;1.02;;;6.10;74.80;;;;;;2056765;28;20108;-90
2022/02/19 03:01:31;;;;;;;4.70;0.90;;;6.00;74.70;;;;;;2061448;28;20042;-90
2022/02/19 03:02:34;;;;;;;3.47;0.77;;;6.10;74.90;;;;;;2056164;28;20042;-91
2022/02/19 03:03:34;;;;;;;5.93;0.90;;;6.10;75.00;;;;;;2063607;28;20043;-90
2022/02/19 03:04:35;;;;;;;3.95;0.90;;;6.10;75.00;;;;;;2058737;28;20493;-89
2022/02/19 03:05:37;;;;;;;7.22;0.80;;;6.10;74.90;;;;;;2070521;28;20191;-90
2022/02/19 03:06:37;;;;;;;5.65;1.15;;;6.00;75.50;;;;;;2073180;28;20037;-90
2022/02/19 03:07:38;;;;;;;5.32;0.90;;;6.10;74.80;;;;;;2093512;28;20138;-90
2022/02/19 03:08:39;;;;;;;5.03;0.90;;;6.10;74.90;;;;;;2076978;28;20031;-90
2022/02/19 03:09:39;;;;;;;4.38;0.98;;;6.10;74.90;;;;;;2067438;28;20066;-90
2022/02/19 03:10:40;;;;;;;3.67;0.82;;;6.10;74.90;;;;;;2105137;28;20032;-91
2022/02/19 03:11:41;;;;;;;5.72;1.17;;;6.10;75.00;;;;;;2092390;28;20040;-90
2022/02/19 03:12:45;;;;;;;5.18;0.90;;;6.10;74.80;;;;;;2057596;28;20050;-90
2022/02/19 03:13:45;;;;;;;6.63;1.25;;;6.10;74.90;;;;;;2056093;28;20588;-91
2022/02/19 03:14:46;;;;;;;5.20;0.90;;;6.10;74.90;;;;;;2040952;29;20036;-90
2022/02/19 03:15:46;;;;;;;5.40;1.02;;;6.10;74.90;;;;;;2048562;28;20132;-90
2022/02/19 03:16:47;;;;;;;5.07;1.00;;;6.10;74.90;;;;;;2058342;28;20038;-90
2022/02/19 03:17:48;;;;;;;3.80;0.82;;;6.10;74.90;;;;;;2052350;28;20438;-88
2022/02/19 03:18:49;;;;;;;5.13;1.00;;;6.10;74.80;;;;;;2048943;28;20408;-90
2022/02/19 03:19:49;;;;;;;5.00;0.93;;;6.10;74.90;;;;;;2063006;28;20039;-90
2022/02/19 03:20:50;;;;;;;4.80;1.10;;;6.10;75.00;;;;;;2052337;28;20036;-90
2022/02/19 03:21:51;;;;;;;4.38;1.20;;;6.10;75.00;;;;;;2059809;28;20061;-90
2022/02/19 03:22:52;;;;;;;5.75;1.00;;;6.10;75.00;;;;;;2069104;28;20107;-90
2022/02/19 03:23:53;;;;;;;6.00;1.10;;;6.10;75.00;;;;;;2081309;28;20072;-90
2022/02/19 03:24:53;;;;;;;6.43;1.00;;;6.10;75.00;;;;;;2064402;28;20047;-90
2022/02/19 03:25:54;;;;;;;6.32;1.08;;;6.10;75.00;;;;;;2063319;28;20089;-89
2022/02/19 03:26:54;;;;;;;4.32;1.00;;;6.10;75.10;;;;;;2087307;28;20069;-90
2022/02/19 03:27:55;;;;;;;3.80;0.80;;;6.10;75.10;;;;;;2067253;28;20046;-90
2022/02/19 03:28:56;;;;;;;4.10;1.00;;;6.10;75.20;;;;;;2055969;28;20037;-89
2022/02/19 03:29:57;;;;;;;5.32;1.13;;;6.10;75.20;;;;;;2058123;28;20062;-90
2022/02/19 03:30:57;;;;;;;5.38;1.00;;;6.10;75.10;;;;;;2081783;28;20077;-90
2022/02/19 03:31:58;;;;;;;9.10;1.50;;;6.00;75.00;;;;;;2066645;28;20041;-90
2022/02/19 03:32:59;;;;;;;5.68;1.45;;;6.10;75.70;;;;;;2045641;28;20127;-89
2022/02/19 03:33:59;;;;;;;6.03;1.27;;;6.00;75.10;;;;;;2047573;28;20039;-90
2022/02/19 03:35:00;;;;;;;6.75;1.33;;;6.10;75.00;;;;;;2068586;28;20040;-90
2022/02/19 03:36:01;;;;;;;6.57;1.20;;;6.10;75.10;;;;;;2056482;28;20031;-90
2022/02/19 03:37:02;;;;;;;5.20;1.10;;;6.00;75.00;;;;;;2072465;28;20030;-90
2022/02/19 03:38:02;;;;;;;7.57;1.30;;;6.00;75.10;;;;;;2053351;28;20530;-90
2022/02/19 03:39:03;;;;;;;4.88;1.20;;;6.00;75.20;;;;;;2067141;28;20065;-90
2022/02/19 03:40:06;;;;;;;6.35;0.95;;;6.00;75.20;;;;;;2064573;28;20050;-90
2022/02/19 03:41:07;;;;;;;5.43;1.00;;;6.00;75.30;;;;;;2043969;28;20037;-90
2022/02/19 03:42:07;;;;;;;5.53;1.10;;;6.00;75.40;;;;;;2042089;29;20146;-91
2022/02/19 03:43:08;;;;;;;6.35;1.45;;;6.00;75.20;;;;;;2066425;28;20079;-90
2022/02/19 03:44:09;;;;;;;6.50;1.10;;;6.00;75.20;;;;;;2059404;28;20183;-90
2022/02/19 03:45:11;;;;;;;9.00;1.25;;;6.00;75.30;;;;;;2078517;28;20038;-89
2022/02/19 03:46:12;;;;;;;5.35;1.40;;;6.00;75.30;;;;;;2054404;28;20050;-89
2022/02/19 03:47:13;;;;;;;7.43;1.42;;;6.00;75.40;;;;;;2056555;28;20104;-90
2022/02/19 03:48:13;;;;;;;5.47;0.90;;;6.00;75.30;;;;;;2059610;28;20102;-90
2022/02/19 03:49:14;;;;;;;7.18;1.25;;;6.00;75.30;;;;;;2064824;28;20050;-90
2022/02/19 03:50:16;;;;;;;5.15;1.20;;;6.00;75.10;;;;;;2065241;28;20035;-90
2022/02/19 03:51:16;;;;;;;8.98;1.20;;;6.00;75.30;;;;;;2066293;28;20096;-90
2022/02/19 03:52:17;;;;;;;7.13;1.05;;;6.00;75.40;;;;;;2065201;28;20047;-90
2022/02/19 03:53:18;;;;;;;8.02;1.55;;;6.00;75.30;;;;;;2055052;28;20138;-90
2022/02/19 03:54:18;;;;;;;7.90;1.40;;;6.00;75.40;;;;;;2068695;28;20040;-91
2022/02/19 03:55:19;;;;;;;5.85;1.17;;;6.00;75.30;;;;;;2071760;28;20141;-90
2022/02/19 03:56:20;;;;;;;7.47;1.20;;;6.00;75.40;;;;;;2059422;28;20039;-90
2022/02/19 03:57:20;;;;;;;7.32;1.40;;;6.00;76.10;;;;;;2064783;28;20039;-90
2022/02/19 03:58:21;;;;;;;4.60;1.17;;;6.00;75.60;;;;;;2070978;28;20047;-90
2022/02/19 03:59:21;;;;;;;8.68;1.38;;;6.00;75.60;;;;;;2062032;28;20129;-90
2022/02/19 04:00:23;;;;;;;6.07;1.30;;;6.00;75.60;;;;;;2050218;28;20060;-90
2022/02/19 04:01:24;;;;;;;7.22;1.30;;;6.00;75.60;;;;;;2068432;28;20416;-90
2022/02/19 04:02:24;;;;;;;7.00;1.20;;;6.00;75.60;;;;;;2088025;28;20072;-90
2022/02/19 04:03:25;;;;;;;8.63;1.70;;;6.00;75.60;;;;;;2067851;28;20049;-90
2022/02/19 04:04:25;;;;;;;6.38;1.20;;;6.00;75.70;;;;;;2051371;28;20034;-90
2022/02/19 04:05:26;;;;;;;5.40;1.00;;;6.00;75.80;;;;;;2063724;28;20038;-90
2022/02/19 04:06:27;;;;;;;6.57;1.17;;;6.00;75.80;;;;;;2055213;28;20035;-90
2022/02/19 04:07:27;;;;;;;9.38;1.33;;;6.00;75.80;;;;;;2064357;28;20092;-89
2022/02/19 04:08:28;;;;;;;5.88;1.30;;;6.00;75.80;;;;;;2059126;28;20047;-89
2022/02/19 04:09:29;;;;;;;5.13;1.08;;;6.00;75.80;;;;;;2072145;28;20038;-89
2022/02/19 04:10:29;;;;;;;4.93;1.35;;;5.90;75.80;;;;;;2072565;28;20524;-90
2022/02/19 04:11:30;;;;;;;4.10;0.90;;;6.00;75.90;;;;;;2065768;28;20273;-90
2022/02/19 04:12:31;;;;;;;4.80;1.17;;;6.00;75.90;;;;;;2063559;28;20044;-90
2022/02/19 04:13:31;;;;;;;5.75;1.10;;;6.00;75.90;;;;;;2070965;28;20139;-91
2022/02/19 04:14:32;;;;;;;6.03;1.10;;;5.90;75.90;;;;;;2066968;28;20488;-90
2022/02/19 04:15:33;;;;;;;7.93;1.80;;;6.00;76.50;;;;;;2064649;28;20127;-89
2022/02/19 04:16:34;;;;;;;4.88;1.17;;;6.00;75.80;;;;;;2070466;28;20065;-90
2022/02/19 04:17:34;;;;;;;6.88;1.40;;;5.90;75.90;;;;;;2064439;28;20042;-90
2022/02/19 04:18:35;;;;;;;6.95;1.35;;;5.90;75.70;;;;;;2056935;28;20139;-89
2022/02/19 04:19:36;;;;;;;8.00;1.40;;;5.90;75.70;;;;;;2056180;28;20033;-90
2022/02/19 04:20:37;;;;;;;7.15;1.45;;;6.00;75.90;;;;;;2066296;28;20034;-90
2022/02/19 04:21:37;;;;;;;6.55;1.25;;;6.00;75.80;;;;;;2075147;28;20048;-89
2022/02/19 04:22:41;;;;;;;6.93;1.30;;;6.00;75.80;;;;;;2043417;28;20291;-90
2022/02/19 04:23:42;;;;;;;8.98;1.10;;;5.90;75.80;;;;;;2059561;28;20125;-90
2022/02/19 04:24:42;;;;;;;7.07;1.40;;;5.90;75.90;;;;;;2054005;28;20055;-90
2022/02/19 04:25:43;;;;;;;6.28;1.48;;;6.00;75.70;;;;;;2068092;28;20552;-89
2022/02/19 04:26:43;;;;;;;5.75;0.82;;;5.90;75.60;;;;;;2062370;28;20043;-89
2022/02/19 04:27:44;;;;;;;8.20;1.48;;;5.90;75.70;;;;;;2063414;28;20055;-90
2022/02/19 04:28:45;;;;;;;4.40;1.42;;;5.90;75.60;;;;;;2042514;28;20063;-91
2022/02/19 04:29:46;;;;;;;5.80;1.25;;;6.00;75.70;;;;;;2041881;28;20050;-90
2022/02/19 04:30:47;;;;;;;7.55;1.40;;;5.90;75.60;;;;;;2067774;28;20035;-90
2022/02/19 04:31:53;;;;;;;4.85;1.13;;;5.90;75.70;;;;;;2048909;28;20067;-90
2022/02/19 04:32:56;;;;;;;7.70;1.60;;;5.90;75.90;;;;;;2068659;28;20034;-90
2022/02/19 04:33:57;;;;;;;4.97;1.17;;;5.90;75.90;;;;;;2053816;28;20130;-89
2022/02/19 04:34:57;;;;;;;5.68;1.52;;;5.90;75.80;;;;;;2065427;28;20062;-90
2022/02/19 04:35:58;;;;;;;6.55;1.58;;;5.90;75.70;;;;;;2066713;28;20053;-90
2022/02/19 04:36:59;;;;;;;5.68;0.98;;;5.90;75.80;;;;;;2075400;28;20057;-89
2022/02/19 04:38:00;;;;;;;8.77;1.73;;;5.90;75.80;;;;;;2062150;28;20524;-90
2022/02/19 04:39:00;;;;;;;8.82;1.52;;;5.90;75.50;;;;;;2107302;28;20044;-89
2022/02/19 04:40:01;;;;;;;9.43;1.55;;;5.90;76.00;;;;;;2088770;28;20119;-89
2022/02/19 04:41:02;;;;;;;7.45;1.40;;;5.90;75.40;;;;;;2047046;28;20557;-90
2022/02/19 04:42:03;;;;;;;9.25;1.45;;;5.90;75.40;;;;;;2076888;28;20049;-90
2022/02/19 04:43:04;;;;;;;6.07;1.38;;;5.90;75.40;;;;;;2052107;28;20041;-89
2022/02/19 04:44:05;;;;;;;8.30;1.20;;;5.90;75.50;;;;;;2052146;28;20131;-89
2022/02/19 04:45:06;;;;;;;6.18;1.30;;;5.90;75.60;;;;;;2090581;28;20061;-90
2022/02/19 04:46:06;;;;;;;6.72;1.33;;;5.90;75.40;;;;;;2070731;28;20530;-90
2022/02/19 04:47:07;;;;;;;5.95;1.10;;;5.90;75.20;;;;;;2051884;28;20032;-89
2022/02/19 04:48:08;;;;;;;7.57;1.50;;;5.90;75.30;;;;;;2066404;28;20039;-89
2022/02/19 04:49:09;;;;;;;7.43;1.63;;;5.90;75.50;;;;;;2064162;28;20089;-89
2022/02/19 04:50:11;;;;;;;6.32;1.30;;;5.90;75.50;;;;;;2072521;28;20065;-90
2022/02/19 04:51:12;;;;;;;6.30;1.20;;;5.90;75.50;;;;;;2069816;28;20043;-91
2022/02/19 04:52:12;;;;;;;7.63;1.90;;;5.90;75.40;;;;;;2062283;28;20158;-90
2022/02/19 04:53:13;;;;;;;7.10;1.40;;;5.90;75.20;;;;;;2086754;28;20032;-89
2022/02/19 04:54:14;;;;;;;6.53;1.42;;;5.90;75.30;;;;;;2048603;28;20047;-90
2022/02/19 04:55:14;;;;;;;7.63;1.38;;;5.90;75.30;;;;;;2044159;28;20043;-90
2022/02/19 04:56:15;;;;;;;5.75;1.20;;;5.90;75.20;;;;;;2042194;28;20043;-89
2022/02/19 04:57:16;;;;;;;6.68;1.60;;;5.90;75.30;;;;;;2045413;28;20028;-89
2022/02/19 04:58:16;;;;;;;10.35;1.40;;;5.90;75.20;;;;;;2048123;28;20047;-90
2022/02/19 04:59:17;;;;;;;6.90;1.42;;;5.90;75.30;;;;;;2054968;28;20030;-90
2022/02/19 05:00:19;;;;;;;6.35;1.30;;;5.90;75.10;;;;;;2059201;28;20073;-90
2022/02/19 05:01:20;;;;;;;5.63;1.13;;;5.90;75.30;;;;;;2047465;28;20130;-90
2022/02/19 05:02:20;;;;;;;5.53;1.30;;;5.90;75.30;;;;;;2047243;28;20091;-90
2022/02/19 05:03:21;;;;;;;4.50;0.90;;;5.90;75.40;;;;;;2051378;28;20552;-90
2022/02/19 05:04:22;;;;;;;6.57;1.30;;;5.90;75.30;;;;;;2049616;28;20135;-88
2022/02/19 05:05:22;;;;;;;5.97;1.30;;;5.90;75.20;;;;;;2053058;28;20519;-89
2022/02/19 05:06:23;;;;;;;5.35;1.30;;;5.90;75.30;;;;;;2066391;28;20120;-89
2022/02/19 05:07:24;;;;;;;7.05;1.30;;;5.90;75.40;;;;;;2105842;28;20032;-89
2022/02/19 05:08:24;;;;;;;5.25;1.20;;;5.90;75.20;;;;;;2078441;28;20045;-90
2022/02/19 05:09:25;;;;;;;5.43;1.08;;;5.90;75.30;;;;;;2064940;28;20068;-90
2022/02/19 05:10:25;;;;;;;5.43;0.95;;;5.90;75.60;;;;;;2097360;28;20033;-90
2022/02/19 05:11:26;;;;;;;4.30;0.98;;;5.90;75.40;;;;;;2093984;28;20094;-90
2022/02/19 05:12:27;;;;;;;6.70;1.42;;;5.90;75.40;;;;;;2057919;28;20566;-89
2022/02/19 05:13:27;;;;;;;5.22;1.00;;;5.90;75.40;;;;;;2066833;28;20077;-89
2022/02/19 05:14:28;;;;;;;4.90;1.10;;;5.90;75.40;;;;;;2059608;28;20054;-90
2022/02/19 05:15:29;;;;;;;7.25;1.30;;;5.90;75.40;;;;;;2102297;28;20126;-90
2022/02/19 05:16:29;;;;;;;6.80;1.50;;;5.90;75.40;;;;;;2089894;28;20155;-89
2022/02/19 05:17:30;;;;;;;3.47;0.90;;;5.90;75.40;;;;;;2049001;28;20039;-89
2022/02/19 05:18:31;;;;;;;5.13;1.15;;;5.90;75.40;;;;;;2055121;28;20126;-90
2022/02/19 05:19:31;;;;;;;5.68;0.93;;;5.90;75.40;;;;;;2055711;28;20074;-89
2022/02/19 05:20:32;;;;;;;4.55;0.90;;;5.90;75.40;;;;;;2066066;28;20034;-89
2022/02/19 05:21:33;;;;;;;7.82;1.20;;;5.90;75.30;;;;;;2062580;28;20042;-91
2022/02/19 05:22:33;;;;;;;5.78;0.85;;;5.80;75.20;;;;;;2063519;28;20448;-90